Tiempo atmosférico en la estación meteorológica de Calanda, Teruel (459 m.)



Fecha
DESCASC
Temp. máxima en grados centígrados (hora)
DESCASC
Temp. mínima en grados centígrados (hora)
DESCASC
Temp. media en grados centígrados
DESCASC
Racha de viento máxima en m/sg (hora)
DESCASC
Velocidad máxima media en intervalos de 10 minutos(hora)
DESCASC
Precipitaciones diarias en mm
DESCASC
Precipitaciones de 00:00 a 06:00 en mm
DESCASC
Precipitaciones de 06:00 a 12:00 en mm
DESCASC
Precipitaciones de 12:00 a 18:00 en mm
DESCASC
Precipitaciones de 18:00 a 24:00 en mm
DESCASC
15-07-2018 36.5 (15:40) 21.5 (07:20) 29 10 (20:20) 5.56 (20:00) 0 0 0 0 0
14-07-2018 34.6 (15:50) 19.2 (06:50) 26.9 10.28 (18:20) 5 (23:50) 0 0 0 0 0
13-07-2018 33 (15:40) 19.1 (07:20) 26.1 13.33 (22:30) 7.22 (22:30) 0 0 0 0 0
12-07-2018 31.9 (17:30) 17.8 (00:00) 24.8 10.56 (19:10) 6.39 (19:10) -- -- 0 0 0
11-07-2018 31.6 (15:50) 20.1 (00:00) 25.9 13.33 (21:30) 6.39 (21:30) 5.2 0 0 4 1.2
10-07-2018 32.6 (17:50) 19.9 (00:00) 26.2 9.72 (18:50) 5.28 (18:10) 0 0 0 0 0
09-07-2018 -- (--) -- (--) -- -- (--) -- (--) -- 0 0 0 --
08-07-2018 34.2 (17:50) 19.6 (06:20) 26.9 12.22 (15:30) 6.39 (19:40) 0.2 0 0 0 0.2
07-07-2018 33.9 (18:30) 19.9 (00:00) 26.9 10 (20:10) 6.67 (21:20) 0 0 0 0 0
06-07-2018 30.7 (19:50) 16.7 (00:00) 23.7 7.78 (22:10) 4.44 (21:30) 0 0 0 0 0
05-07-2018 29 (17:00) 17.7 (07:00) 23.4 12.78 (18:10) 6.67 (17:40) 0 0 0 0 0
04-07-2018 36.2 (17:50) 19.3 (07:20) 27.8 13.06 (22:10) 8.89 (18:30) 0 0 0 0 0
03-07-2018 33.6 (15:50) 20.2 (06:50) 26.9 11.94 (21:10) 7.22 (21:40) 0 0 0 0 0
02-07-2018 32.5 (17:00) 19.9 (06:40) 26.2 9.44 (21:00) 4.72 (21:00) 0 0 0 0 0
01-07-2018 33.6 (16:00) 19.6 (00:00) 26.6 18.61 (16:50) 9.72 (17:00) 2.6 0 0 1.4 1.2
30-06-2018 32 (14:10) 18 (07:10) 25 11.11 (00:50) 6.11 (17:00) 0 0 0 0 0
29-06-2018 31.3 (15:30) 17.8 (00:00) 24.5 13.33 (21:40) 7.5 (16:50) 0 0 0 0 0
28-06-2018 28 (13:10) 18.7 (00:00) 23.4 13.61 (18:50) 7.5 (18:20) 0.2 0 0 0.2 0
27-06-2018 32 (15:00) 19.3 (00:00) 25.6 7.78 (20:00) 3.33 (20:10) 0.2 0 0 0 0.2
26-06-2018 34.2 (18:20) 18.6 (00:00) 26.4 7.22 (19:30) 4.17 (22:00) 0 0 0 0 0
25-06-2018 33.1 (18:40) 17.2 (00:00) 25.1 8.33 (18:20) 4.72 (02:50) 0 0 0 0 0
24-06-2018 32.1 (19:40) 17.3 (00:00) 24.7 7.78 (16:20) 3.89 (16:20) 0 0 0 0 0
23-06-2018 32.4 (19:20) 16.9 (00:00) 24.7 6.67 (14:10) 3.61 (22:50) 0 0 0 0 0
22-06-2018 32.9 (17:20) 19.4 (07:00) 26.2 10 (17:20) 5.28 (19:20) 0 0 0 0 0
21-06-2018 34.3 (19:20) 18.1 (00:00) 26.2 8.61 (00:20) 4.17 (06:40) 0 0 0 0 0
20-06-2018 33.3 (18:10) 17.8 (00:00) 25.5 10.83 (18:20) 5.83 (18:20) 0 0 0 0 0
19-06-2018 30.3 (19:20) 15.6 (00:00) 22.9 6.67 (22:00) 3.89 (21:50) 0 0 0 0 0
18-06-2018 28.6 (16:40) 14.6 (00:00) 21.6 10.28 (13:30) 6.39 (09:50) 0 0 0 0 0
17-06-2018 27.8 (18:10) 12.4 (00:00) 20.1 10 (10:00) 6.39 (09:40) 0 0 0 0 0

Gráficas

Temp. máximas Temp. mínimas Temp. medias Precipitaciones Rachas de viento máximas Velocidades máximas media en intervalos de 10 minutos

Datos horarios

Fecha y hora oficial Temperatura (ºC) Velocidad del viento (km/h) Dirección del viento Racha (km/h) Dirección de racha Precipitación (mm) Presión (hPa) Tendencia (hPa) Humedad (%)
2018-07-16 23:00:00 22.3 10 Noroeste 29 Oeste 0 966.1 2.1 46
2018-07-16 22:00:00 23.2 13 Oeste 33 Oeste 0 965.2 1.8 41
2018-07-16 21:00:00 25.1 21 Noroeste 44 Noroeste 0 964.7 1.4 37
2018-07-16 20:00:00 26.6 24 Noroeste 44 Noroeste 0 964 0.5 34
2018-07-16 19:00:00 28.2 25 Noroeste 47 Noroeste 0 963.4 -0.1 29
2018-07-16 18:00:00 28.4 29 Noroeste 54 Noroeste 0 963.3 0.4 25
2018-07-16 17:00:00 28.2 29 Noroeste 48 Noroeste 0 963.5 1 26
2018-07-16 16:00:00 28.3 30 Noroeste 55 Noroeste 0 963.5 1.1 28
2018-07-16 15:00:00 28.4 29 Noroeste 53 Noroeste 0 962.9 0.9 29
2018-07-16 14:00:00 27.8 30 Noroeste 54 Noroeste 0 962.5 0.6 32
2018-07-16 13:00:00 26.9 33 Noroeste 53 Noroeste 0 962.4 0.6 34
2018-07-16 12:00:00 25.9 23 Oeste 51 Noroeste 0 962 0.2 38
2018-07-16 11:00:00 24.2 27 Noroeste 50 Oeste 0 961.9 0.6 44
2018-07-16 10:00:00 23.7 26 Oeste 50 Oeste 0 961.8 1 41
2018-07-16 09:00:00 22.2 26 Oeste 44 Oeste 0 961.8 1.7 41
2018-07-16 08:00:00 20.3 17 Oeste 32 Oeste 0 961.3 1.3 53
2018-07-16 07:00:00 20.1 14 Oeste 24 Sudoeste 0 960.8 0.5 55
2018-07-16 06:00:00 20 7 Oeste 17 Oeste 0 960.1 0.1 59
2018-07-16 05:00:00 20.6 8 Oeste 15 Oeste 0 960 0.3 61
2018-07-16 04:00:00 22.1 3 Nordeste 19 Oeste 0 960.3 0.7 59
2018-07-16 03:00:00 23.7 11 Oeste 23 Sudoeste 0 960 0.5 49
2018-07-16 02:00:00 25 9 Oeste 23 Oeste 0 959.7 0.4 34
2018-07-16 01:00:00 26.6 12 Oeste 24 Sudoeste 0 959.6 1.3 16
2018-07-16 00:00:00 26.3 12 Sudoeste 21 Sudoeste 0 959.5 1.9 21
2018-07-15 23:00:00 27.4 10 Sudoeste 33 Sur 0 959.3 1.9 36
2018-07-15 22:00:00 29.2 12 Sur 27 Noroeste 0 958.3 0.6 31
2018-07-15 21:00:00 32.1 17 Noroeste 36 Noroeste 0 957.6 -0.4 19
2018-07-15 20:00:00 33 20 Sudeste 32 Este 0 957.4 -1.1 28
2018-07-15 19:00:00 33.8 18 Sudeste 31 Sudeste 0 957.7 -1.4 24
2018-07-15 18:00:00 34.7 17 Sudeste 28 Sudeste 0 958 -1.9 26
2018-07-15 17:00:00 34.3 10 Sudeste 22 Sudeste 0 958.5 -2.5 26
2018-07-15 16:00:00 35.6 12 Sudeste 24 Este 0 959.1 -2.6 16
2018-07-15 15:00:00 35.4 16 Sudeste 24 Sudeste 0 959.9 -2.3 13
2018-07-15 14:00:00 34 4 Nordeste 20 Sur 0 961 -1.3 17
2018-07-15 13:00:00 33.5 8 Sudoeste 21 Norte 0 961.7 -0.7 17
2018-07-15 12:00:00 31.8 9 Norte 21 Oeste 0 962.2 -0.5 20
2018-07-15 11:00:00 30.7 10 Norte 21 Sudoeste 0 962.3 -0.2 22
2018-07-15 10:00:00 28.1 8 Sur 18 Sudoeste 0 962.4 0.3 26
2018-07-15 09:00:00 24.2 10 Sur 17 Sur 0 962.7 0.9 32
2018-07-15 08:00:00 22 7 Sudoeste 23 Sudoeste 0 962.5 0.7 39
2018-07-15 07:00:00 22.1 20 Sudoeste 26 Sudoeste 0 962.1 0.3 38
2018-07-15 06:00:00 22.1 13 Sudoeste 22 Sudoeste 0 961.8 -0.1 39
2018-07-15 05:00:00 22.8 14 Sudoeste 22 Sudoeste 0 961.8 -0.2 41
2018-07-15 04:00:00 23.7 15 Sudoeste 24 Sur 0 961.8 -0.3 40
2018-07-15 03:00:00 24.1 13 Sur 23 Sudoeste 0 961.9 0.2 45
2018-07-15 02:00:00 25.1 10 Sur 26 Sudoeste 0 962 0.6 47
2018-07-15 01:00:00 25.8 14 Sur 27 Sur 0 962.1 1.3 49
2018-07-15 00:00:00 26.6 17 Sur 32 Sur 0 961.7 1.1 47
2018-07-14 23:00:00 27.2 12 Sur 28 Sudeste 0 961.4 0.4 44
2018-07-14 22:00:00 28.5 12 Sudeste 27 Sudeste 0 960.8 -0.5 41
2018-07-14 21:00:00 29.6 10 Este 24 Este 0 960.6 -0.6 40
2018-07-14 20:00:00 30.9 13 Este 22 Este 0 961 -0.3 36
2018-07-14 19:00:00 29.9 10 Este 37 Norte 0 961.3 -0.5 38
2018-07-14 18:00:00 32.7 12 Sudeste 26 Sudeste 0 961.2 -1.5 29
2018-07-14 17:00:00 34.1 5 Este 21 Norte 0 961.3 -2 23
2018-07-14 16:00:00 34 6 Nordeste 18 Este 0 961.8 -2 23
2018-07-14 15:00:00 32.6 8 Nordeste 21 Norte 0 962.7 -1.3 28
2018-07-14 14:00:00 31.5 5 Nordeste 16 Nordeste 0 963.3 -0.9 29
2018-07-14 13:00:00 30.4 5 Nordeste 14 Nordeste 0 963.8 -0.5 33
2018-07-14 12:00:00 28.9 4 Nordeste 13 Sur 0 964 -0.2 36
2018-07-14 11:00:00 27.4 5 Sudeste 13 Sudoeste 0 964.2 0.1 39
2018-07-14 10:00:00 24.7 7 Sur 18 Sudoeste 0 964.3 0.6 47
2018-07-14 09:00:00 22.5 6 Sudoeste 15 Sudoeste 0 964.2 0.9 54
2018-07-14 08:00:00 20.1 2 Sudoeste 12 Oeste 0 964.1 1.4 60
2018-07-14 07:00:00 19.2 6 Oeste 10 Noroeste 0 963.7 0.9 62
2018-07-14 06:00:00 19.6 2 Noroeste 14 Noroeste 0 963.3 0.3 61
2018-07-14 05:00:00 20.8 8 Oeste 12 Oeste 0 962.7 -0.6 58
2018-07-14 04:00:00 21.9 4 Sudeste 14 Sudeste 0 962.8 -0.5 53
2018-07-14 03:00:00 22.9 9 Este 20 Sudeste 0 963 0.1 50
2018-07-14 02:00:00 23.9 11 Sudeste 24 Sudeste 0 963.3 0.8 47
2018-07-14 01:00:00 24.8 14 Sur 32 Sur 0 963.3 1.3 42
2018-07-14 00:00:00 24.9 19 Sur 41 Sur 0 962.9 1.3 44
2018-07-13 23:00:00 25.5 22 Sur 48 Sudeste 0 962.5 1 41
2018-07-13 22:00:00 26.9 20 Sudeste 36 Sudeste 0 962 0.5 36
2018-07-13 21:00:00 28.4 16 Sudeste 34 Sudeste 0 961.6 -0.4 29
2018-07-13 20:00:00 29.8 16 Sudeste 33 Sudeste 0 961.5 -0.6 27
2018-07-13 19:00:00 31.2 14 Sudeste 31 Este 0 961.5 -1 27
2018-07-13 18:00:00 31.5 18 Sudeste 36 Este 0 962 -0.9 25
2018-07-13 17:00:00 32.3 18 Sudeste 34 Este 0 962.1 -1.3 22
2018-07-13 16:00:00 32.2 17 Sudeste 28 Sudeste 0 962.5 -1.7 26
2018-07-13 15:00:00 31.8 6 Nordeste 21 Norte 0 962.9 -1.3 29
2018-07-13 14:00:00 29.1 9 Norte 17 Norte 0 963.4 -0.9 38
2018-07-13 13:00:00 26.8 4 Nordeste 15 Norte 0 964.2 -0.2 55
2018-07-13 12:00:00 25.3 8 Norte 14 Noroeste 0 964.2 -0.4 59
2018-07-13 11:00:00 25.6 5 Este 12 Este 0 964.3 -0.2 61
2018-07-13 10:00:00 22.9 4 Norte 8 Norte 0 964.4 0.2 67
2018-07-13 09:00:00 21.1 4 Sudoeste 9 Sudoeste 0 964.6 0.6 77
2018-07-13 08:00:00 20.1 8 Sudoeste 12 Sudoeste 0 964.5 0.7 81
2018-07-13 07:00:00 19.2 9 Oeste 16 Sur 0 964.2 0.3 84
2018-07-13 06:00:00 20.2 8 Sur 16 Sur 0 964 -0.1 80
2018-07-13 05:00:00 21.1 9 Sudeste 24 Sudeste 0 963.8 -0.1 74
2018-07-13 04:00:00 21.7 12 Sudeste 27 Sudeste 0 963.9 0.7 71
2018-07-13 03:00:00 21.8 11 Sudeste 23 Sur 0 964.1 1.2 70
2018-07-13 02:00:00 22.8 14 Sur 32 Sudeste 0 963.9 0.5 64
2018-07-13 01:00:00 23.3 18 Sur 33 Sudoeste 0 963.2 1.6 60
2018-07-13 00:00:00 23.6 18 Sudeste 28 Sudeste 0 962.9 1.8 65
2018-07-12 23:00:00 24.8 11 Oeste 27 Sudeste 0 963.4 2.5 60
2018-07-12 22:00:00 25.2 16 Sudeste 32 Sudeste 0 961.6 1 59
2018-07-12 21:00:00 26.5 2 Nordeste 13 Sudoeste 0 961.1 0.9 51
2018-07-12 20:00:00 26.6 9 Oeste 38 Sudoeste 0 960.9 0.5 50
2018-07-12 19:00:00 28.7 8 Sur 30 Sudoeste 0 960.6 -0.4 51
2018-07-12 18:00:00 29.4 11 Sudeste 22 Este 0 960.2 -1.3 39
2018-07-12 17:00:00 30.9 5 Nordeste 22 Norte 0 960.4 -1.7 34
2018-07-12 16:00:00 30.3 8 Norte 35 Norte 0 961 -1.4 36
2018-07-12 15:00:00 29 9 Norte 22 Norte 0 961.5 -1 42
2018-07-12 14:00:00 27.5 6 Nordeste 15 Noroeste 0 962.1 -0.3 50
2018-07-12 13:00:00 26.3 7 Norte 16 Norte 0 962.4 0.1 56
2018-07-12 12:00:00 24.7 9 Norte 15 Nordeste 0 962.5 0.5 63
2018-07-12 11:00:00 23.8 6 Norte 14 Norte 0 962.4 0.6 66
2018-07-12 10:00:00 22.3 3 Norte 8 Sudeste 0 962.3 0.5 72
2018-07-12 09:00:00 20 4 Sur 13 Sudoeste 0 962 0.5 80
2018-07-12 08:00:00 18.5 10 Sudoeste 14 Sudoeste 0 961.8 0.3 87
2018-07-12 07:00:00 18 5 Oeste 13 Sudoeste 0 961.8 0.2 89
2018-07-12 06:00:00 18.4 6 Sudoeste 10 Sudoeste 0 961.5 -0.3 88
2018-07-12 05:00:00 18.9 5 Sur 15 Sudoeste 0 961.5 -0.1 85
2018-07-12 04:00:00 18.9 9 Sudoeste -- -- -- 961.6 -0.6 85
2018-07-12 03:00:00 19 6 Sudoeste 11 Noroeste 0 961.8 0.4 86
2018-07-12 02:00:00 19.7 9 Sudoeste -- -- -- 961.6 1.1 82
2018-07-12 01:00:00 20.1 8 Oeste 21 Noroeste 1 962.2 1.9 83
2018-07-12 00:00:00 20.8 5 Oeste 22 Sur 0 961.4 0.9 73
2018-07-11 23:00:00 20.9 13 Sur 36 Sudoeste 0 960.5 0.5 68
2018-07-11 22:00:00 21.2 17 Sur 48 Sur 0 960.3 -0.2 69
2018-07-11 21:00:00 22 14 Sur 31 Sudoeste 0 960.5 -0.2 70
2018-07-11 20:00:00 21.5 10 Sur 34 Sur 0 960 0.5 75
2018-07-11 19:00:00 20.3 11 Sur 27 Sur 1.2 960.5 1.5 79
2018-07-11 18:00:00 20.9 9 Sudoeste 28 Sudoeste 3.8 960.7 1 81
2018-07-11 17:00:00 26.4 4 Sur 34 Norte 0.2 959.5 -1.1 48
2018-07-11 16:00:00 30.6 12 Norte 25 Norte 0 959 -2.4 28
2018-07-11 15:00:00 30.1 11 Norte 22 Nordeste 0 959.7 -2.2 29
2018-07-11 14:00:00 29.7 5 Este 18 Noroeste 0 960.6 -1.7 31
2018-07-11 13:00:00 28.2 6 Nordeste 17 Norte 0 961.4 -1.3 33
2018-07-11 12:00:00 27.1 4 Nordeste 17 Norte 0 961.9 -0.9 34
2018-07-11 11:00:00 25.8 5 Nordeste 10 Norte 0 962.3 -0.6 37
2018-07-11 10:00:00 24.2 5 Este 13 Sudeste 0 962.7 0 43
2018-07-11 09:00:00 21.9 3 Sur 8 Este 0 962.8 0.2 50
2018-07-11 08:00:00 21 0 Calma 6 Noroeste 0 962.9 0.5 52
2018-07-11 07:00:00 20.4 3 Norte 5 Norte 0 962.7 0.2 51
2018-07-11 06:00:00 21.2 2 Sudoeste 14 Sudoeste 0 962.6 -0.3 49
2018-07-11 05:00:00 21.7 8 Sudoeste 27 Sudoeste 0 962.4 -0.8 47
2018-07-11 04:00:00 22.2 13 Sudoeste 26 Sudoeste 0 962.5 -0.8 46
2018-07-11 03:00:00 22.6 14 Sudoeste 24 Sudoeste 0 962.9 -0.3 47
2018-07-11 02:00:00 23.3 12 Sudoeste 19 Oeste 0 963.2 0.3 45
2018-07-11 01:00:00 24.2 8 Oeste 16 Oeste 0 963.3 1.2 41
2018-07-11 00:00:00 25 9 Noroeste 16 Oeste 0 963.2 1.5 39
2018-07-10 23:00:00 26.2 8 Noroeste 15 Noroeste 0 962.9 1.6 35
2018-07-10 22:00:00 27.9 9 Noroeste 27 Noroeste 0 962.1 1 29
2018-07-10 21:00:00 29.8 16 Noroeste 28 Noroeste 0 961.7 0.3 28
2018-07-10 20:00:00 31.3 17 Noroeste 32 Noroeste 0 961.3 -0.3 26
2018-07-10 19:00:00 31.9 17 Norte 35 Norte 0 961.1 -0.9 24
2018-07-10 18:00:00 32.5 18 Noroeste 34 Noroeste 0 961.4 -1.1 24
2018-07-10 17:00:00 32.4 13 Norte 30 Norte 0 961.6 -1.6 26
2018-07-10 16:00:00 31.9 18 Norte 28 Norte 0 962 -1.7 27
2018-07-10 15:00:00 31.1 12 Noroeste 28 Norte 0 962.5 -1.7 28
2018-07-10 14:00:00 30.8 13 Noroeste 26 Norte 0 963.2 -1.5 29
2018-07-10 13:00:00 29.7 12 Norte 22 Norte 0 963.7 -1.7 30
2018-07-10 12:00:00 28.9 4 Sudoeste 13 Sur 0 964.2 -1.2 34
2018-07-10 11:00:00 26.7 8 Sudoeste 30 Noroeste 0 964.7 -0.7 38
2018-07-10 10:00:00 24.9 10 Noroeste 22 Noroeste 0 965.4 0.1 41
2018-07-10 09:00:00 22.6 8 Sudoeste 15 Sudoeste 0 965.4 0.3 50
2018-07-10 08:00:00 21 9 Sudoeste 13 Sudoeste 0 965.4 0.3 61
2018-07-10 07:00:00 19.9 5 Sudoeste 11 Sudoeste 0 965.3 0.3 65
2018-07-10 06:00:00 20.1 6 Sudoeste 10 Sudoeste 0 965.1 0.1 62
2018-07-10 05:00:00 20.8 4 Oeste 9 Sudoeste 0 965.1 -0.2 60
2018-07-10 04:00:00 22 5 Oeste 19 Sudoeste 0 965 -0.3 57
2018-07-10 03:00:00 22.9 10 Sudoeste 18 Sudoeste 0 965 -0.4 55
2018-07-10 02:00:00 23.3 9 Sudoeste 18 Sudoeste 0 965.3 0 51
2018-07-10 01:00:00 24 8 Sudoeste 13 Sudoeste 0 965.3 -- 51
2018-07-10 00:00:00 24.4 7 Sudoeste 18 Sudoeste 0 965.4 -- 51
2018-07-09 23:00:00 24.6 10 Sudoeste -- -- -- 965.3 -- 56
2018-07-09 22:00:00 -- -- -- -- -- -- -- -- --
2018-07-09 21:00:00 -- -- -- -- -- -- -- -- --
2018-07-09 20:00:00 -- -- -- -- -- -- -- -- --
2018-07-09 19:00:00 -- -- -- -- -- -- -- -- --
2018-07-09 18:00:00 33 13 Norte 28 Norte 0 962.9 -1.4 24
2018-07-09 17:00:00 33 12 Norte 27 Norte 0 962.9 -2 25
2018-07-09 16:00:00 32.2 12 Norte 26 Noroeste 0 963.5 -2.2 29
2018-07-09 15:00:00 31.8 12 Norte 24 Norte 0 964.3 -1.7 30
2018-07-09 14:00:00 30.8 7 Nordeste 20 Nordeste 0 964.9 -1.5 31
2018-07-09 13:00:00 30.2 5 Sudoeste 21 Norte 0 965.7 -1 32
2018-07-09 12:00:00 29.6 6 Norte 13 Norte 0 966 -0.9 32
2018-07-09 11:00:00 28.2 4 Sur 12 Noroeste 0 966.4 -0.6 38
2018-07-09 10:00:00 25.9 4 Oeste 13 Sur 0 966.7 0.2 45
2018-07-09 09:00:00 23.3 9 Sudoeste 13 Sudoeste 0 966.9 0.8 52
2018-07-09 08:00:00 20.8 8 Sudoeste 17 Sudoeste 0 967 0.7 59
2018-07-09 07:00:00 20.4 7 Sur 16 Oeste 0 966.5 0.4 60
2018-07-09 06:00:00 21.2 8 Oeste 18 Sudoeste 0 966.1 -0.2 57
2018-07-09 05:00:00 21.4 10 Sudoeste 13 Sudoeste 0 966.3 0 59
2018-07-09 04:00:00 22.1 5 Sur 12 Sudoeste 0 966.1 -0.5 54
2018-07-09 03:00:00 22.9 5 Oeste 12 Noroeste 0 966.3 0.3 53
2018-07-09 02:00:00 23.5 6 Sudoeste 17 Sudoeste 0 966.3 0.7 50
2018-07-09 01:00:00 23.5 8 Sudoeste 11 Sudoeste 0 966.6 1.7 46
2018-07-09 00:00:00 24.7 7 Sudoeste 18 Sudoeste 0 966 1.2 45
2018-07-08 23:00:00 25.3 11 Sudoeste 23 Sudoeste 0 965.6 1.1 44
2018-07-08 22:00:00 25.8 7 Sudoeste 24 Sur 0 964.9 0.8 43
2018-07-08 21:00:00 26.4 17 Sur 34 Sudoeste 0 964.8 1.6 43
2018-07-08 20:00:00 25.7 17 Sur 38 Sur 0.2 964.5 0.6 52
2018-07-08 19:00:00 29.6 18 Sudeste 33 Sudeste 0 964.1 -0.4 32
2018-07-08 18:00:00 33.4 12 Norte 25 Norte 0 963.2 -1.9 23
2018-07-08 17:00:00 33.7 10 Nordeste 26 Norte 0 963.9 -2 25
2018-07-08 16:00:00 33.3 9 Norte 44 Nordeste 0 964.5 -2.1 27
2018-07-08 15:00:00 32.2 7 Este 16 Sudeste 0 965.1 -1.8 27
2018-07-08 14:00:00 30.4 9 Norte 17 Norte 0 965.9 -1.1 32
2018-07-08 13:00:00 29.1 5 Sudoeste 13 Nordeste 0 966.6 -0.7 36
2018-07-08 12:00:00 27.1 5 Noroeste 17 Noroeste 0 966.9 -0.1 47
2018-07-08 11:00:00 26.1 6 Noroeste 14 Noroeste 0 967 0.4 50
2018-07-08 10:00:00 24.6 5 Norte 19 Sudoeste 0 967.3 1 57
2018-07-08 09:00:00 22.1 10 Sudoeste 22 Sudoeste 0 967 1.1 68
2018-07-08 08:00:00 20.9 12 Sudoeste 18 Sudoeste 0 966.6 0.5 74
2018-07-08 07:00:00 20.5 6 Sudoeste 14 Sudoeste 0 966.3 0.3 78
2018-07-08 06:00:00 19.8 6 Sudoeste 10 Sudoeste 0 965.9 0.1 77
2018-07-08 05:00:00 20.4 7 Sudoeste 14 Noroeste 0 966.1 0.3 77
2018-07-08 04:00:00 20.8 8 Noroeste 15 Noroeste 0 966 0.1 70
2018-07-08 03:00:00 21.5 8 Oeste 13 Oeste 0 965.8 0.6 65
2018-07-08 02:00:00 22.2 6 Sudoeste 16 Sudoeste 0 965.8 1.7 63
2018-07-08 01:00:00 23.4 12 Oeste 22 Oeste 0 965.9 2.9 60
2018-07-08 00:00:00 26 9 Oeste 20 Sudoeste 0 965.2 3.1 47
2018-07-07 23:00:00 27.3 4 Noroeste 32 Sudeste 0 964.1 2.3 36
2018-07-07 22:00:00 28.4 14 Sudeste 36 Sudeste 0 963 1.1 33
2018-07-07 21:00:00 30.1 19 Sudeste 36 Sudeste 0 962.1 -0.4 28
2018-07-07 20:00:00 32.2 22 Sudeste 36 Sudeste 0 961.8 -1.4 24
2018-07-07 19:00:00 33.2 18 Sudeste 31 Sudeste 0 961.9 -2.4 23
2018-07-07 18:00:00 33.3 8 Nordeste 23 Norte 0 962.5 -2.6 27
2018-07-07 17:00:00 32.3 11 Nordeste 24 Norte 0 963.2 -2.6 29
2018-07-07 16:00:00 30.8 8 Nordeste 21 Nordeste 0 964.3 -2 31
2018-07-07 15:00:00 28.2 6 Nordeste 14 Este 0 965.1 -1.7 37
2018-07-07 14:00:00 27.6 4 Nordeste 13 Norte 0 965.8 -1.4 39
2018-07-07 13:00:00 26.3 4 Nordeste 10 Norte 0 966.3 -1 42
2018-07-07 12:00:00 24.9 5 Norte 13 Noroeste 0 966.8 -0.2 43
2018-07-07 11:00:00 24 9 Norte 15 Norte 0 967.2 0.7 45
2018-07-07 10:00:00 22.3 10 Norte 21 Norte 0 967.3 1 50
2018-07-07 09:00:00 22.2 14 Norte 22 Norte 0 967 0.9 51
2018-07-07 08:00:00 21.2 2 Sudoeste 6 Sur 0 966.5 0.1 74
2018-07-07 07:00:00 20 4 Sur 9 Sudoeste 0 966.3 -0.1 79
2018-07-07 06:00:00 20 3 Sudeste 5 Sudeste 0 966.1 -0.3 60
2018-07-07 05:00:00 20.5 5 Oeste 9 Oeste 0 966.4 0.1 75
2018-07-07 04:00:00 21.8 7 Oeste 11 Oeste 0 966.4 0.1 68
2018-07-07 03:00:00 22.3 8 Sudoeste 17 Sudoeste 0 966.4 -0.1 69
2018-07-07 02:00:00 23 7 Oeste 19 Sur 0 966.3 0.1 69
2018-07-07 01:00:00 23.6 12 Sur 25 Sur 0 966.3 0.8 62
2018-07-07 00:00:00 24 14 Sur 26 Sur 0 966.5 2 62
2018-07-06 23:00:00 24.5 13 Sur 28 Sur 0 966.2 1.7 59
2018-07-06 22:00:00 26.6 14 Sur 27 Sudeste 0 965.5 1 49
2018-07-06 21:00:00 29.6 5 Este 18 Norte 0 964.5 -0.5 30
2018-07-06 20:00:00 30.4 8 Nordeste 19 Nordeste 0 964.5 -1 26
2018-07-06 19:00:00 30.4 9 Nordeste 24 Norte 0 964.5 -1.6 26
2018-07-06 18:00:00 30.1 9 Norte 26 Norte 0 965 -1.7 27
2018-07-06 17:00:00 29.9 6 Norte 23 Norte 0 965.5 -1.9 27
2018-07-06 16:00:00 28.9 9 Norte 23 Noroeste 0 966.1 -1.9 29
2018-07-06 15:00:00 27.8 11 Norte 22 Nordeste 0 966.7 -1.6 32
2018-07-06 14:00:00 26.4 9 Norte 22 Norte 0 967.4 -1.2 34
2018-07-06 13:00:00 25.5 9 Nordeste 18 Nordeste 0 968 -0.8 38
2018-07-06 12:00:00 24.5 4 Nordeste 18 Norte 0 968.3 -0.6 40
2018-07-06 11:00:00 22.8 6 Nordeste 15 Norte 0 968.6 0.1 43
2018-07-06 10:00:00 21.2 5 Noroeste 16 Oeste 0 968.8 0.4 48
2018-07-06 09:00:00 19 9 Sudoeste 19 Sudoeste 0 968.9 0.7 55
2018-07-06 08:00:00 17.7 8 Sudoeste 15 Sudoeste 0 968.5 0.2 58
2018-07-06 07:00:00 16.9 7 Sudoeste 19 Sudoeste 0 968.4 0 60
2018-07-06 06:00:00 17.2 12 Sudoeste 22 Sudoeste 0 968.2 -0.4 59
2018-07-06 05:00:00 17.6 12 Sudoeste 21 Oeste 0 968.3 -0.3 58
2018-07-06 04:00:00 18.2 13 Sudoeste 26 Sudoeste 0 968.4 0.1 56
2018-07-06 03:00:00 18.8 11 Oeste 22 Sudoeste 0 968.6 0.8 56
2018-07-06 02:00:00 19.6 10 Oeste 19 Oeste 0 968.6 1.5 53
2018-07-06 01:00:00 20.6 12 Oeste 22 Oeste 0 968.3 2.5 49
2018-07-06 00:00:00 21.6 11 Noroeste 24 Noroeste 0 967.8 2.7 46
2018-07-05 23:00:00 23 16 Noroeste 26 Noroeste 0 967.1 2.5 40
2018-07-05 22:00:00 24.5 13 Noroeste 27 Norte 0 965.8 1.4 33
2018-07-05 21:00:00 26.3 16 Noroeste 30 Noroeste 0 965.1 0.5 29
2018-07-05 20:00:00 27.6 20 Noroeste 35 Norte 0 964.6 -0.2 27
2018-07-05 19:00:00 28.1 17 Norte 46 Noroeste 0 964.4 -0.7 26
2018-07-05 18:00:00 28.3 22 Norte 38 Noroeste 0 964.6 -0.7 27
2018-07-05 17:00:00 29 22 Noroeste 39 Noroeste 0 964.8 -0.9 27
2018-07-05 16:00:00 28.3 20 Noroeste 38 Oeste 0 965.1 -0.8 29
2018-07-05 15:00:00 28.1 16 Noroeste 39 Norte 0 965.3 -0.7 29
2018-07-05 14:00:00 27 14 Noroeste 32 Noroeste 0 965.7 -0.6 32
2018-07-05 13:00:00 25.9 13 Noroeste 26 Noroeste 0 965.9 -0.3 34
2018-07-05 12:00:00 24.9 16 Noroeste 33 Noroeste 0 966 -0.1 39
2018-07-05 11:00:00 23.6 18 Noroeste 35 Noroeste 0 966.3 0.7 44
2018-07-05 10:00:00 22.7 11 Oeste 24 Oeste 0 966.2 0.9 47
2018-07-05 09:00:00 20.5 10 Noroeste 19 Oeste 0 966.1 1.4 56
2018-07-05 08:00:00 19 8 Sudoeste 17 Sudoeste 0 965.6 1.1 66
2018-07-05 07:00:00 17.7 8 Sudoeste 17 Sudoeste 0 965.3 0.9 70
2018-07-05 06:00:00 18.2 12 Oeste 21 Oeste 0 964.7 0.7 68
2018-07-05 05:00:00 18.6 12 Oeste 26 Oeste 0 964.5 0.6 67
2018-07-05 04:00:00 19.1 15 Oeste 35 Oeste 0 964.4 0.5 65
2018-07-05 03:00:00 20 20 Oeste 32 Oeste 0 964 0.8 61
2018-07-05 02:00:00 21.1 17 Oeste 35 Oeste 0 963.9 1.9 57
2018-07-05 01:00:00 21.8 16 Oeste 33 Oeste 0 963.9 4.4 52
2018-07-05 00:00:00 23 17 Noroeste 34 Noroeste 0 963.2 4.7 45
2018-07-04 23:00:00 24.7 22 Noroeste 47 Noroeste 0 962 4.2 40
2018-07-04 22:00:00 29 13 Oeste 27 Oeste 0 959.5 2.1 30
2018-07-04 21:00:00 32.5 15 Oeste 33 Sudoeste 0 958.5 1.2 11
2018-07-04 20:00:00 33.8 22 Sudoeste 44 Sudoeste 0 957.8 0.4 10
2018-07-04 19:00:00 35 26 Sudoeste 46 Sudoeste 0 957.4 -0.3 9
2018-07-04 18:00:00 35.8 21 Sudoeste 43 Sudoeste 0 957.3 -1.3 11
2018-07-04 17:00:00 34.7 14 Sur 35 Sudeste 0 957.4 -2.1 24
2018-07-04 16:00:00 32.8 6 Sudoeste 14 Este 0 957.7 -2.8 25
2018-07-04 15:00:00 32 5 Norte 18 Norte 0 958.6 -2.6 23
2018-07-04 14:00:00 31.9 6 Nordeste 21 Este 0 959.5 -2 27
2018-07-04 13:00:00 30.4 6 Nordeste 19 Este 0 960.5 -1.1 32
2018-07-04 12:00:00 27.8 7 Nordeste 18 Norte 0 961.2 -0.6 39
2018-07-04 11:00:00 25.9 5 Nordeste 14 Este 0 961.5 -0.2 45
2018-07-04 10:00:00 24.6 6 Norte 10 Norte 0 961.6 0.3 51
2018-07-04 09:00:00 22 3 Nordeste 8 Este 0 961.8 0.7 52
2018-07-04 08:00:00 20.7 0 Calma 8 Oeste 0 961.7 0.5 51
2018-07-04 07:00:00 19.4 6 Oeste 8 Oeste 0 961.3 0.4 50
2018-07-04 06:00:00 20.8 2 Sur 13 Sudoeste 0 961.1 0.1 46
2018-07-04 05:00:00 22.4 8 Sudoeste 14 Sudoeste 0 961.2 0.1 38
2018-07-04 04:00:00 24.3 7 Sur 22 Sudoeste 0 960.9 -0.4 28
2018-07-04 03:00:00 25 13 Sur 24 Sur 0 961 -0.4 27
2018-07-04 02:00:00 25.7 12 Sur 30 Sur 0 961.1 0.1 28
2018-07-04 01:00:00 26.4 16 Sur 34 Sur 0 961.3 1.1 27
2018-07-04 00:00:00 26.9 16 Sur 31 Sur 0 961.4 1.6 28
2018-07-03 23:00:00 27.8 19 Sur 40 Sudeste 0 961 1.6 27
2018-07-03 22:00:00 28.8 23 Sudeste 43 Sur 0 960.2 0.3 25
2018-07-03 21:00:00 30.2 22 Sudeste 40 Sur 0 959.8 -0.9 25
2018-07-03 20:00:00 31 20 Sudeste 33 Sudeste 0 959.4 -1.1 26
2018-07-03 19:00:00 30.6 14 Este 32 Nordeste 0 959.9 -0.7 36
2018-07-03 18:00:00 29.1 13 Este 32 Este 0 960.7 -0.6 44
2018-07-03 17:00:00 30.6 19 Este 32 Este 0 960.5 -1.6 38
2018-07-03 16:00:00 32.5 11 Nordeste 22 Nordeste 0 960.6 -2.2 23
2018-07-03 15:00:00 31.9 10 Norte 23 Norte 0 961.3 -1.9 25
2018-07-03 14:00:00 30.9 9 Nordeste 22 Nordeste 0 962.1 -1.4 26
2018-07-03 13:00:00 29.4 8 Norte 17 Nordeste 0 962.8 -0.9 30
2018-07-03 12:00:00 28.6 6 Nordeste 15 Nordeste 0 963.2 -0.3 33
2018-07-03 11:00:00 27.6 6 Noroeste 12 Norte 0 963.5 0.4 32
2018-07-03 10:00:00 26.1 4 Nordeste 10 Sudeste 0 963.7 0.8 34
2018-07-03 09:00:00 23.2 6 Sur 16 Sudoeste 0 963.5 1 43
2018-07-03 08:00:00 21.3 12 Sudoeste 17 Sudoeste 0 963.1 0.9 45
2018-07-03 07:00:00 20.4 9 Sur 14 Sur 0 962.9 1.1 45
2018-07-03 06:00:00 21 7 Sudoeste 18 Sudoeste 0 962.5 0.7 43
2018-07-03 05:00:00 21.5 8 Sudoeste 16 Sudoeste 0 962.2 0.2 42
2018-07-03 04:00:00 23.4 9 Sudoeste 16 Sudoeste 0 961.8 0 37
2018-07-03 03:00:00 23.6 7 Oeste 20 Sudoeste 0 961.8 0.4 37
2018-07-03 02:00:00 23.4 11 Sudoeste 18 Sudoeste 0 962 0.8 42
2018-07-03 01:00:00 24.3 11 Sudoeste 17 Sudoeste 0 961.8 1.4 45
2018-07-03 00:00:00 25 8 Sur 15 Sur 0 961.4 1.6 43
2018-07-02 23:00:00 26.3 4 Sur 26 Sudeste 0 961.2 1.8 39
2018-07-02 22:00:00 27.7 13 Sudeste 25 Sudeste 0 960.4 1.3 34
2018-07-02 21:00:00 29.9 17 Sudeste 34 Este 0 959.8 0.6 29
2018-07-02 20:00:00 31.5 9 Nordeste 18 Nordeste 0 959.4 0 21
2018-07-02 19:00:00 31.3 6 Este 18 Nordeste 0 959.1 -0.8 24
2018-07-02 18:00:00 31.4 9 Nordeste 23 Norte 0 959.2 -1 21
2018-07-02 17:00:00 32.2 7 Noroeste 28 Norte 0 959.4 -1.4 21
2018-07-02 16:00:00 31 6 Este 20 Norte 0 959.9 -1.1 23
2018-07-02 15:00:00 30.4 8 Nordeste 20 Nordeste 0 960.2 -0.8 24
2018-07-02 14:00:00 29.2 8 Norte 20 Norte 0 960.8 -0.2 26
2018-07-02 13:00:00 28.6 7 Oeste 20 Noroeste 0 961 0 29
2018-07-02 12:00:00 27.6 9 Noroeste 22 Noroeste 0 961 0.5 30
2018-07-02 11:00:00 26.5 11 Oeste 23 Oeste 0 961 1 32
2018-07-02 10:00:00 24.9 14 Oeste 25 Oeste 0 961 1.4 39
2018-07-02 09:00:00 22.7 10 Oeste 22 Oeste 0 960.5 1.4 49
2018-07-02 08:00:00 21.1 11 Sudoeste 18 Sudoeste 0 960 1.9 50
2018-07-02 07:00:00 20.3 8 Oeste 15 Sudoeste 0 959.6 1.7 49
2018-07-02 06:00:00 20.6 3 Oeste 18 Oeste 0 959.1 1.5 49
2018-07-02 05:00:00 20.4 7 Sudoeste 14 Sudoeste 0 958.1 0.6 48
2018-07-02 04:00:00 21.9 4 Sudoeste 16 Noroeste 0 957.9 0.4 50
2018-07-02 03:00:00 22.1 6 Sur 14 Sudoeste 0 957.6 0.2 48
2018-07-02 02:00:00 22.6 9 Sudoeste 14 Sudoeste 0 957.5 0.2 52
2018-07-02 01:00:00 22.3 9 Sudoeste 18 Sudoeste 0 957.5 1.3 69
2018-07-02 00:00:00 23.3 5 Sur 8 Sudeste 0 957.4 1.9 69
2018-07-01 23:00:00 24.3 2 Sur 13 Noroeste 0 957.3 2.1 65
2018-07-01 22:00:00 25.8 5 Sur 8 Sur 0 956.2 1 67
2018-07-01 21:00:00 27.5 3 Sudoeste 8 Noroeste 0 955.5 0.2 56
2018-07-01 20:00:00 26.7 2 Sudoeste 12 Sudoeste 0 955.2 0.3 61
2018-07-01 19:00:00 26.3 4 Sur -- -- 1.2 955.2 0.9 69
2018-07-01 18:00:00 26 8 Sudeste 52 Noroeste 1.4 955.3 -0.3 61
2018-07-01 17:00:00 26.6 35 Noroeste 67 Oeste 0 954.9 -1.5 50
2018-07-01 16:00:00 32.9 11 Nordeste 27 Nordeste 0 954.3 -2.9 28
2018-07-01 15:00:00 32.8 7 Este 23 Nordeste 0 955.6 -1.7 28
2018-07-01 14:00:00 31.8 8 Este 17 Este 0 956.4 -1 30
2018-07-01 13:00:00 30 5 Norte 14 Este 0 957.2 -0.3 33
2018-07-01 12:00:00 28.2 5 Nordeste 13 Nordeste 0 957.3 -0.1 40
2018-07-01 11:00:00 26.7 4 Nordeste 10 Nordeste 0 957.4 0.1 42
2018-07-01 10:00:00 24.6 4 Este 9 Este 0 957.5 0.8 46
2018-07-01 09:00:00 21.6 4 Nordeste 8 Este 0 957.4 1.1 54
2018-07-01 08:00:00 20.7 3 Sudoeste 8 Noroeste 0 957.3 1.1 55
2018-07-01 07:00:00 19.7 6 Norte 17 Sudoeste 0 956.7 0.3 58
2018-07-01 06:00:00 20.2 12 Sudoeste 16 Sudoeste 0 956.3 -0.1 56
2018-07-01 05:00:00 20.8 8 Sudoeste 16 Sudoeste 0 956.2 -0.2 54
2018-07-01 04:00:00 21.7 5 Sudoeste 21 Sur 0 956.4 0 52
2018-07-01 03:00:00 22.4 12 Sur 23 Sur 0 956.4 0.1 50
2018-07-01 02:00:00 22.5 8 Sur 26 Sur 0 956.4 0.7 54
2018-07-01 01:00:00 23.3 10 Sudeste 29 Sudeste 0 956.4 1.6 51
2018-07-01 00:00:00 23.8 11 Sudeste 27 Sudeste 0 956.3 1.3 46
2018-06-30 23:00:00 24.9 16 Sudeste 40 Sudeste 0 955.7 1.2 38
2018-06-30 22:00:00 25.7 17 Sudeste 33 Sudeste 0 954.8 0.4 33
2018-06-30 21:00:00 27.5 15 Sudeste 34 Este 0 955 0.6 31
2018-06-30 20:00:00 28.8 20 Sudeste 38 Sudeste 0 954.5 -0.2 28
2018-06-30 19:00:00 29.9 22 Sudeste 40 Sudeste 0 954.4 -0.7 27
2018-06-30 18:00:00 31.1 18 Sudeste 37 Sudeste 0 954.4 -1.1 27
2018-06-30 17:00:00 31.1 22 Sudeste 38 Este 0 954.7 -1.2 30
2018-06-30 16:00:00 31.4 17 Sudeste 35 Sudeste 0 955.1 -1.3 29
2018-06-30 15:00:00 31.7 15 Sudeste 33 Sur 0 955.5 -1.4 28
2018-06-30 14:00:00 31.8 16 Sudeste 28 Sudeste 0 955.9 -1.4 27
2018-06-30 13:00:00 30.2 6 Nordeste 20 Este 0 956.4 -1.2 32
2018-06-30 12:00:00 28.2 7 Norte 17 Norte 0 956.9 -0.9 35
2018-06-30 11:00:00 26.7 6 Este 14 Sudeste 0 957.3 -0.6 39
2018-06-30 10:00:00 24.6 4 Sudeste 10 Este 0 957.6 0.1 43
2018-06-30 09:00:00 21.3 5 Sur 11 Sur 0 957.8 0.4 51
2018-06-30 08:00:00 19.4 5 Sudoeste 10 Sudoeste 0 957.9 0.6 56
2018-06-30 07:00:00 18.1 9 Oeste 13 Sudoeste 0 957.5 -0.1 60
2018-06-30 06:00:00 19.8 5 Sudoeste 12 Sudeste 0 957.4 -0.3 56
2018-06-30 05:00:00 21.5 9 Sudeste 22 Sudeste 0 957.3 -0.5 51
2018-06-30 04:00:00 21.8 14 Sudeste 30 Sudeste 0 957.6 0.1 51
2018-06-30 03:00:00 22.1 13 Sudeste 24 Sudeste 0 957.7 0.8 49
2018-06-30 02:00:00 22.2 6 Este 21 Sur 0 957.8 1.1 47
2018-06-30 01:00:00 23.2 13 Sudeste 40 Sur 0 957.5 1.4 43
2018-06-30 00:00:00 23.2 17 Sudeste 41 Sur 0 956.9 1 45
2018-06-29 23:00:00 23.8 19 Sur 48 Sudeste 0 956.7 1.2 44
2018-06-29 22:00:00 24.8 26 Sudeste 48 Sudeste 0 956.1 0.7 43
2018-06-29 21:00:00 26.3 21 Sudeste 35 Sudeste 0 955.9 0.5 41
2018-06-29 20:00:00 27.9 17 Sudeste 37 Este 0 955.5 0 37
2018-06-29 19:00:00 29.1 18 Sudeste 38 Sudeste 0 955.4 -0.7 33
2018-06-29 18:00:00 29.6 22 Sudeste 43 Sudeste 0 955.4 -1.1 32
2018-06-29 17:00:00 29.4 27 Sudeste 42 Sur 0 955.5 -1.5 32
2018-06-29 16:00:00 30.3 23 Sudeste 35 Sudeste 0 956.1 -1.5 32
2018-06-29 15:00:00 30.7 14 Sudeste 31 Sudeste 0 956.5 -1.6 31
2018-06-29 14:00:00 29 14 Sudeste 26 Sudeste 0 957 -1.4 31
2018-06-29 13:00:00 27 9 Nordeste 18 Nordeste 0 957.6 -1 45
2018-06-29 12:00:00 26.5 10 Nordeste 19 Nordeste 0 958.1 -0.3 48
2018-06-29 11:00:00 24.3 4 Norte 13 Norte 0 958.4 -0.3 59
2018-06-29 10:00:00 22.6 8 Norte 13 Norte 0 958.6 0.1 68
2018-06-29 09:00:00 21.2 6 Oeste 13 Oeste 0 958.4 -0.1 72
2018-06-29 08:00:00 19.3 8 Sudoeste 13 Sudoeste 0 958.7 -0.2 80
2018-06-29 07:00:00 17.8 7 Sudoeste 12 Sudoeste 0 958.5 0.7 83
2018-06-29 06:00:00 18.3 7 Sudoeste 14 Norte 0 958.5 0.5 76
2018-06-29 05:00:00 19.2 8 Noroeste 13 Noroeste 0 958.9 0.6 61
2018-06-29 04:00:00 20.3 3 Sudoeste 29 Sudoeste 0 957.8 -1 59
2018-06-29 03:00:00 20.4 15 Sur 28 Sur 0 958 -0.7 60
2018-06-29 02:00:00 19.1 5 Sur 10 Sudoeste 0 958.3 0 64
2018-06-29 01:00:00 20.4 5 Sudoeste 18 Nordeste 0 958.8 1.1 57
2018-06-29 00:00:00 20.1 3 Nordeste 15 Norte 0 958.7 1.6 59
2018-06-28 23:00:00 21.3 8 Oeste 14 Oeste 0 958.3 2.5 54
2018-06-28 22:00:00 22.6 3 Sudeste 10 Este 0 957.7 1.4 50
2018-06-28 21:00:00 24 4 Sur 13 Sur 0 957.1 0.7 44
2018-06-28 20:00:00 24.1 13 Sur 33 Sur 0 955.8 -2.1 41
2018-06-28 19:00:00 24.4 19 Sur 49 Sur 0 956.3 -1.9 39
2018-06-28 18:00:00 23.3 22 Sur 44 Sur 0 956.4 -1.5 48
2018-06-28 17:00:00 24.2 11 Sur 22 Sudeste 0.2 957.9 -0.6 66
2018-06-28 16:00:00 25.9 4 Este 14 Norte 0 958.2 -1 51
2018-06-28 15:00:00 26.6 11 Norte 17 Norte 0 957.9 -1.9 45
2018-06-28 14:00:00 27.2 6 Noroeste 20 Norte 0 958.5 -1.8 44
2018-06-28 13:00:00 27.4 8 Nordeste 20 Nordeste 0 959.2 -1.7 44
2018-06-28 12:00:00 25.5 8 Norte 17 Norte 0 959.8 -1.3 50
2018-06-28 11:00:00 24.7 3 Norte 9 Noroeste 0 960.3 -0.7 60
2018-06-28 10:00:00 22.4 2 Sudoeste 7 Este 0 960.9 0.1 70
2018-06-28 09:00:00 20.7 4 Este 8 Nordeste 0 961.1 0.7 79
2018-06-28 08:00:00 20 4 Este 7 Este 0 961 0.6 81
2018-06-28 07:00:00 18.7 3 Sudeste 8 Oeste 0 960.8 0.2 82
2018-06-28 06:00:00 19 4 Oeste 8 Oeste 0 960.4 -0.6 80
2018-06-28 05:00:00 20.2 2 Noroeste 16 Noroeste 0 960.4 -1.1 71
2018-06-28 04:00:00 20.9 9 Oeste 19 Sudoeste 0 960.6 -1.4 68
2018-06-28 03:00:00 21.8 13 Sudoeste 22 Sudoeste 0 961 -1.2 65
2018-06-28 02:00:00 22.3 12 Sudoeste 21 Sudoeste 0 961.5 -0.1 64
2018-06-28 01:00:00 22.7 12 Sudoeste 21 Sudoeste 0 962 1.4 66
2018-06-28 00:00:00 23 6 Sudoeste 9 Oeste 0 962.2 1.9 68
2018-06-27 23:00:00 23.8 5 Oeste 12 Sudoeste 0 961.6 -0.1 69
2018-06-27 22:00:00 24.2 8 Sudeste 20 Sudoeste 0 960.6 0.2 68
2018-06-27 21:00:00 25.1 10 Noroeste 22 Sudoeste 0.2 960.3 -0.4 69
2018-06-27 20:00:00 28 12 Sudoeste 28 Sudoeste 0 961.7 1.3 46
2018-06-27 19:00:00 29.4 10 Noroeste 19 Noroeste 0 960.4 -0.1 36
2018-06-27 18:00:00 29.5 11 Noroeste 18 Noroeste 0 960.7 -0.3 35
2018-06-27 17:00:00 30.2 5 Norte 14 Norte 0 960.4 -1.2 32
2018-06-27 16:00:00 30.8 8 Nordeste 16 Este 0 960.5 -2 33
2018-06-27 15:00:00 32 6 Norte 20 Norte 0 961 -2.2 33
2018-06-27 14:00:00 30.8 7 Norte 15 Norte 0 961.6 -2.1 36
2018-06-27 13:00:00 29.2 5 Este 14 Nordeste 0 962.5 -1.4 42
2018-06-27 12:00:00 27.1 7 Norte 18 Norte 0 963.2 -0.7 48
2018-06-27 11:00:00 25.6 5 Nordeste 13 Nordeste 0 963.7 -0.2 54
2018-06-27 10:00:00 24 5 Norte 9 Norte 0 963.9 -0.1 60
2018-06-27 09:00:00 21.3 5 Este 10 Este 0 963.9 0.4 73
2018-06-27 08:00:00 20.2 5 Este 9 Este 0 963.9 0.6 78
2018-06-27 07:00:00 19.3 2 Sudoeste 5 Sur 0 964 1 76
2018-06-27 06:00:00 20.1 5 Noroeste 10 Oeste 0 963.5 0.2 75
2018-06-27 05:00:00 20.4 3 Norte 11 Norte 0 963.3 0 68
2018-06-27 04:00:00 22.1 4 Norte 17 Sur 0 963 -0.3 59
2018-06-27 03:00:00 22.9 4 Sur 16 Sudoeste 0 963.3 0.3 56
2018-06-27 02:00:00 23.6 8 Sur 19 Sudeste 0 963.3 0.5 54
2018-06-27 01:00:00 24.3 7 Sur 16 Sur 0 963.3 1 52
2018-06-27 00:00:00 25.1 7 Sur 13 Sur 0 963 1.6 49
2018-06-26 23:00:00 26.1 4 Sudeste 23 Sur 0 962.8 1.6 47
2018-06-26 22:00:00 27.8 15 Sudeste 26 Sudeste 0 962.3 1.3 42
2018-06-26 21:00:00 30.2 6 Nordeste 23 Nordeste 0 961.4 0.1 37
2018-06-26 20:00:00 31.9 11 Nordeste 26 Norte 0 961.2 -0.6 34
2018-06-26 19:00:00 33.6 11 Norte 22 Norte 0 961 -1.1 21
2018-06-26 18:00:00 34 9 Noroeste 22 Norte 0 961.3 -1.4 21
2018-06-26 17:00:00 33.4 8 Norte 17 Norte 0 961.8 -1.4 24
2018-06-26 16:00:00 32.8 7 Noroeste 21 Norte 0 962.1 -1.6 27
2018-06-26 15:00:00 31.4 5 Norte 16 Nordeste 0 962.7 -1.3 32
2018-06-26 14:00:00 30.3 4 Norte 18 Nordeste 0 963.2 -1.1 35
2018-06-26 13:00:00 28.5 9 Noroeste 17 Norte 0 963.7 -0.5 41
2018-06-26 12:00:00 26.8 5 Noroeste 18 Norte 0 964 -0.1 46
2018-06-26 11:00:00 25.2 6 Norte 15 Norte 0 964.3 0.3 53
2018-06-26 10:00:00 24.4 4 Nordeste 10 Norte 0 964.2 0.3 51
2018-06-26 09:00:00 21.6 2 Nordeste 5 Noroeste 0 964.1 0.8 56
2018-06-26 08:00:00 20.2 0 Calma 6 Sudoeste 0 964 1 57
2018-06-26 07:00:00 18.7 4 Oeste 7 Oeste 0 963.9 0.9 68
2018-06-26 06:00:00 19.8 5 Oeste 12 Oeste 0 963.3 0.4 67
2018-06-26 05:00:00 20.7 8 Sur 14 Oeste 0 963 0.1 69
2018-06-26 04:00:00 22.3 8 Sudoeste 24 Sudoeste 0 963 0.1 63
2018-06-26 03:00:00 22.9 9 Sur 22 Sur 0 962.9 0.5 61
2018-06-26 02:00:00 23.4 9 Sur 15 Sur 0 962.9 0.7 59
2018-06-26 01:00:00 24.4 7 Sudoeste 18 Sur 0 962.9 1.5 56
2018-06-26 00:00:00 25.6 11 Sur 19 Sur 0 962.4 1.4 52
2018-06-25 23:00:00 25.7 6 Sur 11 Sur 0 962.2 1.2 45
2018-06-25 22:00:00 28.2 0 Calma 8 Nordeste 0 961.4 0.5 30
2018-06-25 21:00:00 31.4 5 Nordeste 14 Norte 0 961 -0.2 24
2018-06-25 20:00:00 32.6 6 Nordeste 18 Norte 0 961 -0.4 21
2018-06-25 19:00:00 32.7 9 Norte 30 Norte 0 960.9 -0.9 21
2018-06-25 18:00:00 32.6 12 Norte 25 Norte 0 961.2 -1.1 22
2018-06-25 17:00:00 32.1 14 Noroeste 24 Norte 0 961.4 -1.2 22
2018-06-25 16:00:00 31.3 11 Norte 23 Norte 0 961.8 -1.3 25
2018-06-25 15:00:00 30.2 10 Norte 27 Norte 0 962.3 -0.9 30
2018-06-25 14:00:00 28.7 13 Norte 26 Noroeste 0 962.6 -0.5 36
2018-06-25 13:00:00 28.6 14 Norte 26 Norte 0 963.1 0 33
2018-06-25 12:00:00 27.6 11 Norte 23 Noroeste 0 963.2 0.1 33
2018-06-25 11:00:00 27 7 Noroeste 19 Oeste 0 963.1 0.2 32
2018-06-25 10:00:00 25.6 6 Oeste 14 Sudoeste 0 963.1 0.5 30
2018-06-25 09:00:00 21.7 6 Sur 15 Sudoeste 0 963.1 0.7 45
2018-06-25 08:00:00 19.4 10 Sudoeste 15 Sudoeste 0 962.9 0.6 58
2018-06-25 07:00:00 17.7 9 Sudoeste 13 Sudoeste 0 962.6 0.5 63
2018-06-25 06:00:00 18.1 4 Sudoeste 11 Oeste 0 962.4 0.3 51
2018-06-25 05:00:00 19.3 8 Oeste 15 Sudoeste 0 962.3 -0.1 46
2018-06-25 04:00:00 21.1 6 Sudoeste 19 Sudoeste 0 962.1 -0.4 49
2018-06-25 03:00:00 21.5 17 Sudoeste 24 Sudoeste 0 962.1 -0.4 43
2018-06-25 02:00:00 22.2 14 Sudoeste 21 Sudoeste 0 962.4 0.2 38
2018-06-25 01:00:00 22.9 8 Sudoeste 16 Sudoeste 0 962.5 1 37
2018-06-25 00:00:00 22.5 4 Sudoeste 13 Oeste 0 962.5 1.2 36
2018-06-24 23:00:00 23.7 9 Oeste 12 Oeste 0 962.2 1 30
2018-06-24 22:00:00 26.8 0 Calma 6 Nordeste 0 961.5 0.1 26
2018-06-24 21:00:00 30.3 5 Norte 12 Este 0 961.3 -0.5 17
2018-06-24 20:00:00 31.7 5 Nordeste 14 Norte 0 961.2 -1 18
2018-06-24 19:00:00 31.5 8 Nordeste 22 Norte 0 961.4 -1.3 19
2018-06-24 18:00:00 32 9 Norte 24 Norte 0 961.8 -1.5 21
2018-06-24 17:00:00 30.9 9 Norte 28 Norte 0 962.2 -1.6 25
2018-06-24 16:00:00 30.3 7 Noroeste 19 Noroeste 0 962.7 -1.6 24
2018-06-24 15:00:00 29 9 Norte 18 Norte 0 963.3 -1.1 28
2018-06-24 14:00:00 28.2 8 Nordeste 23 Noroeste 0 963.8 -1 34
2018-06-24 13:00:00 27.2 11 Noroeste 21 Norte 0 964.3 -0.4 37
2018-06-24 12:00:00 26.1 11 Noroeste 21 Norte 0 964.4 -0.5 36
2018-06-24 11:00:00 24.5 11 Norte 25 Norte 0 964.8 0.3 36
2018-06-24 10:00:00 22.7 3 Este 8 Nordeste 0 964.7 0.5 52
2018-06-24 09:00:00 19.8 4 Norte 9 Norte 0 964.9 0.9 70
2018-06-24 08:00:00 18.2 0 Calma 10 Oeste 0 964.5 0.6 64
2018-06-24 07:00:00 17.5 8 Oeste 11 Oeste 0 964.2 0.1 64
2018-06-24 06:00:00 18.2 7 Oeste 12 Oeste 0 964 0 63
2018-06-24 05:00:00 19.3 5 Oeste 8 Oeste 0 963.9 0 63
2018-06-24 04:00:00 20.5 6 Sudoeste 12 Sudoeste 0 964.1 0.4 58
2018-06-24 03:00:00 21.4 6 Oeste 12 Sudoeste 0 964 0.5 56
2018-06-24 02:00:00 22.9 5 Oeste 19 Sudoeste 0 963.9 0.4 54
2018-06-24 01:00:00 23.4 13 Sudoeste 18 Sudoeste 0 963.7 0.8 56
2018-06-24 00:00:00 24.7 11 Sudoeste 21 Sudoeste 0 963.5 1.2 53
2018-06-23 23:00:00 25.4 11 Sur 23 Sur 0 963.5 1.4 51
2018-06-23 22:00:00 27.5 7 Sur 17 Sudeste 0 962.9 0.8 45
2018-06-23 21:00:00 30.7 2 Nordeste 14 Norte 0 962.3 -0.5 25
2018-06-23 20:00:00 32 9 Norte 15 Nordeste 0 962.1 -0.8 21
2018-06-23 19:00:00 31.8 7 Norte 19 Nordeste 0 962.1 -1.4 24
2018-06-23 18:00:00 31.8 6 Nordeste 21 Norte 0 962.8 -1.5 25
2018-06-23 17:00:00 31.2 10 Nordeste 23 Nordeste 0 962.9 -2 27
2018-06-23 16:00:00 30.7 6 Oeste 24 Norte 0 963.5 -1.9 28
2018-06-23 15:00:00 29.8 9 Norte 24 Noroeste 0 964.3 -1.4 28
2018-06-23 14:00:00 28.2 8 Norte 19 Norte 0 964.9 -0.9 31
2018-06-23 13:00:00 27.1 6 Nordeste 18 Norte 0 965.4 -0.5 33
2018-06-23 12:00:00 25.4 8 Norte 16 Norte 0 965.7 -0.2 36
2018-06-23 11:00:00 24.4 5 Nordeste 13 Norte 0 965.8 -0.2 38
2018-06-23 10:00:00 23 4 Norte 10 Noroeste 0 965.9 0.2 43
2018-06-23 09:00:00 20.7 7 Norte 12 Norte 0 965.9 0.3 52
2018-06-23 08:00:00 18.7 6 Sudoeste 10 Sudoeste 0 966 0.6 64
2018-06-23 07:00:00 16.9 4 Oeste 6 Sur 0 965.7 0.3 68
2018-06-23 06:00:00 17.6 5 Noroeste 8 Oeste 0 965.6 0.4 64
2018-06-23 05:00:00 18.8 2 Oeste 11 Norte 0 965.4 0.2 60
2018-06-23 04:00:00 20.1 5 Noroeste 12 Oeste 0 965.4 0.1 56
2018-06-23 03:00:00 20.4 7 Oeste 15 Oeste 0 965.2 0.2 56
2018-06-23 02:00:00 21.6 5 Noroeste 11 Norte 0 965.2 0.9 53
2018-06-23 01:00:00 22.8 8 Oeste 12 Oeste 0 965.3 2.2 49
2018-06-23 00:00:00 23.7 6 Sudoeste 8 Sudoeste 0 965 2.2 47
2018-06-22 23:00:00 25.7 5 Noroeste 10 Sudoeste 0 964.3 1.9 41
2018-06-22 22:00:00 27.6 6 Noroeste 23 Noroeste 0 963.1 0.7 34
2018-06-22 21:00:00 29.8 14 Noroeste 29 Noroeste 0 962.8 0.4 29
2018-06-22 20:00:00 31.4 16 Noroeste 29 Noroeste 0 962.4 -0.4 27
2018-06-22 19:00:00 32.3 17 Noroeste 33 Norte 0 962.4 -0.9 26
2018-06-22 18:00:00 32.8 15 Noroeste 36 Noroeste 0 962.4 -1.4 25
2018-06-22 17:00:00 32.5 14 Noroeste 29 Noroeste 0 962.8 -1.7 27
2018-06-22 16:00:00 32.3 12 Norte 28 Noroeste 0 963.3 -1.7 28
2018-06-22 15:00:00 31.3 16 Norte 25 Noroeste 0 963.8 -1.3 29
2018-06-22 14:00:00 30.3 11 Noroeste 24 Noroeste 0 964.5 -0.7 33
2018-06-22 13:00:00 29.3 13 Noroeste 28 Norte 0 965 -0.5 38
2018-06-22 12:00:00 28.1 8 Noroeste 17 Norte 0 965.1 -0.7 42
2018-06-22 11:00:00 26.6 9 Oeste 22 Sudoeste 0 965.2 -0.3 46
2018-06-22 10:00:00 24.8 7 Sudoeste 16 Oeste 0 965.5 0.2 52
2018-06-22 09:00:00 22.4 5 Sudoeste 13 Sudoeste 0 965.8 0.9 60
2018-06-22 08:00:00 20.2 6 Sudoeste 12 Sudoeste 0 965.5 1 69
2018-06-22 07:00:00 19.4 3 Oeste 8 Sur 0 965.3 0.7 66
2018-06-22 06:00:00 20.5 7 Sudoeste 8 Oeste 0 964.9 0.2 61
2018-06-22 05:00:00 21.4 6 Oeste 15 Sudoeste 0 964.5 0 57
2018-06-22 04:00:00 22.1 9 Sudoeste 13 Oeste 0 964.6 0.6 53
2018-06-22 03:00:00 22.5 7 Oeste 14 Sudoeste 0 964.7 0.9 43
2018-06-22 02:00:00 24.6 11 Oeste 28 Noroeste 0 964.5 0.8 37
2018-06-22 01:00:00 25.5 11 Sur 18 Sur 0 964 1 34
2018-06-22 00:00:00 26.2 10 Sur 22 Sudeste 0 963.8 1.1 32
2018-06-21 23:00:00 27.4 12 Sur 22 Sudeste 0 963.7 1.2 30
2018-06-21 22:00:00 28.6 10 Sur 22 Sur 0 963 0.5 28
2018-06-21 21:00:00 31.4 8 Sur 14 Sur 0 962.7 -0.3 24
2018-06-21 20:00:00 34 5 Noroeste 11 Norte 0 962.5 -0.8 17
2018-06-21 19:00:00 33.7 4 Este 16 Este 0 962.5 -1.3 18
2018-06-21 18:00:00 33.5 6 Nordeste 18 Noroeste 0 963 -1.2 18
2018-06-21 17:00:00 33.3 5 Nordeste 22 Noroeste 0 963.3 -1.4 17
2018-06-21 16:00:00 32.9 6 Norte 20 Norte 0 963.8 -1.2 19
2018-06-21 15:00:00 32.6 8 Nordeste 18 Norte 0 964.2 -1.1 23
2018-06-21 14:00:00 31.1 8 Nordeste 16 Este 0 964.7 -0.6 20
2018-06-21 13:00:00 30.3 8 Este 16 Este 0 965 -0.7 22
2018-06-21 12:00:00 29.7 4 Sudeste 11 Este 0 965.3 -0.4 21
2018-06-21 11:00:00 27.5 4 Este 11 Sur 0 965.3 -0.1 27
2018-06-21 10:00:00 24.5 8 Sudoeste 14 Sudoeste 0 965.7 0.6 33
2018-06-21 09:00:00 19.6 11 Sudoeste 18 Sudoeste 0 965.7 0.8 48
2018-06-21 08:00:00 18.2 9 Sudoeste 13 Sudoeste 0 965.4 0.8 51
2018-06-21 07:00:00 18.5 10 Sur 20 Sur 0 965.1 0.1 51
2018-06-21 06:00:00 18.7 5 Oeste 8 Noroeste 0 964.9 -0.4 50
2018-06-21 05:00:00 19.8 2 Este 17 Sudoeste 0 964.6 -0.6 49
2018-06-21 04:00:00 20.7 7 Sur 12 Sudoeste 0 965 -0.1 48
2018-06-21 03:00:00 21.2 6 Sur 13 Sur 0 965.3 0.2 48
2018-06-21 02:00:00 22.1 6 Sudoeste 12 Este 0 965.2 0.4 45
2018-06-21 01:00:00 23.3 4 Sudeste 31 Sur 0 965.1 0.9 43
2018-06-21 00:00:00 24 12 Sur 28 Sur 0 965.1 1.2 42
2018-06-20 23:00:00 25.1 17 Sur 27 Sur 0 964.8 1.1 39
2018-06-20 22:00:00 26.4 16 Sur 30 Sur 0 964.2 0.9 31
2018-06-20 21:00:00 28.5 12 Sur 24 Sudeste 0 963.9 0.7 28
2018-06-20 20:00:00 30.1 15 Sudeste 26 Sudeste 0 963.7 0.2 24
2018-06-20 19:00:00 31 17 Sudeste 39 Este 0 963.3 -0.5 25
2018-06-20 18:00:00 32.8 9 Norte 29 Noroeste 0 963.2 -1.1 23
2018-06-20 17:00:00 32.7 11 Nordeste 27 Nordeste 0 963.5 -1.5 23
2018-06-20 16:00:00 32.5 10 Norte 28 Norte 0 963.8 -1.7 22
2018-06-20 15:00:00 31.9 6 Oeste 22 Norte 0 964.3 -1.6 22
2018-06-20 14:00:00 30.5 6 Noroeste 17 Norte 0 965 -1 24
2018-06-20 13:00:00 30 3 Noroeste 18 Nordeste 0 965.5 -0.6 26
2018-06-20 12:00:00 28.2 5 Nordeste 18 Nordeste 0 965.9 -0.3 31
2018-06-20 11:00:00 26.7 4 Nordeste 12 Nordeste 0 966 0 33
2018-06-20 10:00:00 24.3 3 Noroeste 9 Este 0 966.1 0.3 42
2018-06-20 09:00:00 20.5 3 Nordeste 8 Nordeste 0 966.2 0.5 55
2018-06-20 08:00:00 19.5 3 Sudoeste 8 Sudoeste 0 966 0.4 60
2018-06-20 07:00:00 17.9 4 Oeste 10 Sur 0 965.8 0.4 67
2018-06-20 06:00:00 19.4 8 Sur 15 Sudoeste 0 965.7 0.1 57
2018-06-20 05:00:00 20.1 8 Sudoeste 18 Sur 0 965.6 -0.1 55
2018-06-20 04:00:00 20.8 11 Sur 20 Sudoeste 0 965.4 -0.3 54
2018-06-20 03:00:00 21.2 11 Sudoeste 24 Sur 0 965.6 -0.2 53
2018-06-20 02:00:00 22.2 13 Sur 28 Sur 0 965.7 0 50
2018-06-20 01:00:00 22.8 13 Sur 27 Sur 0 965.7 0.6 48
2018-06-20 00:00:00 23.8 10 Sur 22 Sudeste 0 965.8 0.9 46
2018-06-19 23:00:00 24.9 9 Sur 23 Sudeste 0 965.7 0.9 43
2018-06-19 22:00:00 26.2 13 Sudeste 24 Sudeste 0 965.1 0.2 40
2018-06-19 21:00:00 29.1 4 Nordeste 16 Nordeste 0 964.9 -0.4 28
2018-06-19 20:00:00 29.7 9 Norte 19 Nordeste 0 964.8 -0.9 27
2018-06-19 19:00:00 30 9 Nordeste 19 Norte 0 964.9 -1.3 28
2018-06-19 18:00:00 30.2 9 Nordeste 21 Norte 0 965.3 -1.6 29
2018-06-19 17:00:00 29.7 8 Nordeste 22 Nordeste 0 965.7 -1.8 30
2018-06-19 16:00:00 28.5 7 Nordeste 18 Norte 0 966.2 -2 31
2018-06-19 15:00:00 27.1 8 Norte 22 Norte 0 966.9 -1.9 34
2018-06-19 14:00:00 26.3 7 Norte 18 Norte 0 967.5 -1.7 39
2018-06-19 13:00:00 24.6 3 Nordeste 15 Nordeste 0 968.2 -1.5 40
2018-06-19 12:00:00 23.6 4 Nordeste 15 Norte 0 968.8 -1 45
2018-06-19 11:00:00 21.9 5 Noroeste 12 Noroeste 0 969.2 -0.5 47
2018-06-19 10:00:00 20.3 4 Norte 14 Oeste 0 969.7 0.1 52
2018-06-19 09:00:00 17.9 8 Sudoeste 18 Sudoeste 0 969.8 0.6 63
2018-06-19 08:00:00 16.9 10 Sudoeste 17 Sudoeste 0 969.7 0.7 67
2018-06-19 07:00:00 15.7 10 Sudoeste 18 Sudoeste 0 969.6 0.7 73
2018-06-19 06:00:00 15.9 10 Sudoeste 17 Sudoeste 0 969.2 0.2 72
2018-06-19 05:00:00 16.1 9 Sudoeste 18 Sudoeste 0 969 -0.2 71
2018-06-19 04:00:00 16.5 12 Sudoeste 19 Sudoeste 0 968.9 -0.4 68
2018-06-19 03:00:00 16.8 11 Sudoeste 20 Sudoeste 0 969 -0.1 65
2018-06-19 02:00:00 17.2 12 Sudoeste 21 Sudoeste 0 969.2 0.6 63
2018-06-19 01:00:00 17.9 9 Oeste 18 Sudoeste 0 969.3 1.5 60
2018-06-19 00:00:00 18.9 8 Oeste 15 Oeste 0 969.1 2 58
2018-06-18 23:00:00 20.1 12 Oeste 21 Oeste 0 968.6 2 52
2018-06-18 22:00:00 21.9 7 Oeste 27 Oeste 0 967.8 1.4 46
2018-06-18 21:00:00 24.2 18 Noroeste 35 Oeste 0 967.1 0.5 38
2018-06-18 20:00:00 26.6 22 Noroeste 34 Noroeste 0 966.6 -0.4 32
2018-06-18 19:00:00 28.3 16 Oeste 30 Oeste 0 966.4 -0.9 28
2018-06-18 18:00:00 28.1 18 Noroeste 35 Noroeste 0 966.6 -1.2 29
2018-06-18 17:00:00 28.3 21 Noroeste 33 Noroeste 0 967 -1.3 29
2018-06-18 16:00:00 28.3 17 Norte 34 Noroeste 0 967.3 -1.4 30
2018-06-18 15:00:00 27.4 15 Noroeste 33 Noroeste 0 967.8 -1.1 29
2018-06-18 14:00:00 26.5 18 Noroeste 37 Noroeste 0 968.3 -0.9 31
2018-06-18 13:00:00 25.6 17 Noroeste 33 Noroeste 0 968.7 -0.8 34
2018-06-18 12:00:00 24 19 Noroeste 32 Noroeste 0 968.9 -0.5 39
2018-06-18 11:00:00 22.8 17 Noroeste 33 Noroeste 0 969.2 0.2 43
2018-06-18 10:00:00 21.5 18 Noroeste 36 Noroeste 0 969.5 0.7 44
2018-06-18 09:00:00 20.2 18 Oeste 33 Noroeste 0 969.4 0.6 44
2018-06-18 08:00:00 17.4 7 Sudoeste 15 Oeste 0 969 0.4 53
2018-06-18 07:00:00 15.2 8 Sudoeste 12 Sudoeste 0 968.8 0.4 55
2018-06-18 06:00:00 15.5 4 Sudoeste 17 Oeste 0 968.8 0.5 46
2018-06-18 05:00:00 15.7 5 Sudoeste 10 Norte 0 968.6 0.1 43
2018-06-18 04:00:00 16.6 4 Sudoeste 17 Oeste 0 968.4 -0.1 39
2018-06-18 03:00:00 18 9 Noroeste 21 Oeste 0 968.3 -0.4 37
2018-06-18 02:00:00 18.8 10 Oeste 26 Oeste 0 968.5 0.1 39
2018-06-18 01:00:00 19.6 12 Oeste 29 Oeste 0 968.5 0.8 42
2018-06-18 00:00:00 20.4 13 Oeste 27 Oeste 0 968.7 2.1 40
2018-06-17 23:00:00 20.9 9 Oeste 17 Oeste 0 968.4 2 36
2018-06-17 22:00:00 23 12 Oeste 27 Noroeste 0 967.7 1.3 28
2018-06-17 21:00:00 25.6 15 Noroeste 28 Noroeste 0 966.6 0.1 22
2018-06-17 20:00:00 27.3 17 Noroeste 31 Noroeste 0 966.4 -0.2 18
2018-06-17 19:00:00 27.6 16 Noroeste 34 Noroeste 0 966.4 -0.6 22
2018-06-17 18:00:00 27.5 19 Noroeste 32 Noroeste 0 966.5 -0.8 22
2018-06-17 17:00:00 27.1 18 Noroeste 31 Noroeste 0 966.6 -0.7 19
2018-06-17 16:00:00 26.4 19 Noroeste 34 Noroeste 0 967 -0.7 30
2018-06-17 15:00:00 25.5 20 Noroeste 33 Norte 0 967.3 -0.6 33
2018-06-17 14:00:00 25.4 20 Noroeste 32 Noroeste 0 967.3 -0.7 36
2018-06-17 13:00:00 23.9 18 Noroeste 32 Noroeste 0 967.7 -0.2 38
2018-06-17 12:00:00 22.5 14 Noroeste 27 Noroeste 0 967.9 0.5 37
2018-06-17 11:00:00 21.1 17 Noroeste 32 Noroeste 0 968 1.1 39
2018-06-17 10:00:00 19.7 22 Noroeste 36 Noroeste 0 967.9 1.3 39
2018-06-17 09:00:00 17.6 11 Noroeste 24 Noroeste 0 967.4 1.1 43
2018-06-17 08:00:00 15.7 4 Sudoeste 13 Oeste 0 966.9 0.6 49
2018-06-17 07:00:00 12.6 6 Oeste 11 Oeste 0 966.6 0.5 62
2018-06-17 06:00:00 13.5 7 Sudoeste 12 Sudoeste 0 966.3 0.3 62
2018-06-17 05:00:00 14.9 3 Oeste 25 Oeste 0 966.3 0.7 56
2018-06-17 04:00:00 14.7 6 Oeste 13 Oeste 0 966.1 0.6 61
2018-06-17 03:00:00 16.6 4 Sudoeste 12 Sudoeste 0 966 0.9 56
2018-06-17 02:00:00 18.4 12 Oeste 26 Oeste 0 965.6 1 50
2018-06-17 01:00:00 19.6 12 Oeste 23 Sudoeste 0 965.5 2 46
2018-06-17 00:00:00 20 12 Oeste 23 Oeste 0 965.1 2.3 47